Time;durP1;ratioP1;P1;durP2;ratioP2;P2;SDS_P1;SDS_P2;PMS_P1;PMS_P2;Temp;Humidity;BMP_temperature;BMP_pressure;BME280_temperature;BME280_humidity;BME280_pressure;Samples;Min_cycle;Max_cycle;Signal;HPM_P1;HPM_P2
2022/03/12 00:01:03;;;;;;;21.83;11.65;;;;;;;8.78;31.37;100765.41;4181979;28;20037;-60
2022/03/12 00:03:09;;;;;;;22.27;10.50;;;;;;;8.77;31.06;100767.97;4180122;28;20451;-60
2022/03/12 00:05:13;;;;;;;16.23;9.77;;;;;;;8.73;30.99;100760.13;4194375;28;20040;-60
2022/03/12 00:07:16;;;;;;;16.73;9.45;;;;;;;8.71;30.84;100764.38;4193029;28;20048;-61
2022/03/12 00:09:18;;;;;;;16.15;8.43;;;;;;;8.70;30.94;100762.63;4194914;28;20052;-60
2022/03/12 00:11:23;;;;;;;15.93;9.35;;;;;;;8.68;31.33;100766.88;4189193;28;20090;-60
2022/03/12 00:13:26;;;;;;;17.95;10.23;;;;;;;8.67;31.33;100766.84;4191040;28;20052;-60
2022/03/12 00:15:33;;;;;;;16.60;9.18;;;;;;;8.67;31.34;100772.03;4195404;28;20044;-60
2022/03/12 00:17:36;;;;;;;17.77;9.20;;;;;;;8.62;31.35;100774.50;4183361;28;20052;-60
2022/03/12 00:19:42;;;;;;;15.82;8.95;;;;;;;8.58;31.44;100767.47;4169266;28;20482;-60
2022/03/12 00:21:45;;;;;;;22.92;10.20;;;;;;;8.56;31.45;100780.38;4193471;28;20578;-60
2022/03/12 00:23:50;;;;;;;18.15;10.82;;;;;;;8.61;31.60;100780.50;4184329;28;20053;-60
2022/03/12 00:25:52;;;;;;;15.65;8.52;;;;;;;8.58;31.17;100777.84;4191431;28;20461;-60
2022/03/12 00:27:55;;;;;;;13.85;8.50;;;;;;;8.59;30.77;100783.91;4181292;28;20072;-60
2022/03/12 00:30:00;;;;;;;13.90;8.40;;;;;;;8.64;30.75;100777.13;4187708;28;20040;-60
2022/03/12 00:32:05;;;;;;;19.90;10.85;;;;;;;8.67;31.23;100785.88;4197419;28;20037;-60
2022/03/12 00:34:07;;;;;;;;;;;;;;;8.50;31.38;100780.22;4198310;28;20063;-60
2022/03/12 00:36:12;;;;;;;11.35;6.93;;;;;;;8.51;31.31;100782.00;4193463;28;19928;-60
2022/03/12 00:38:16;;;;;;;12.25;7.60;;;;;;;8.55;31.41;100788.13;4197228;28;20399;-60
2022/03/12 00:40:21;;;;;;;11.50;7.15;;;;;;;8.60;30.87;100786.56;4196522;28;20032;-59
2022/03/12 00:42:24;;;;;;;13.07;7.97;;;;;;;8.62;31.12;100782.28;4183125;28;20495;-60
2022/03/12 00:44:26;;;;;;;23.55;11.05;;;;;;;8.63;31.34;100777.94;4201522;28;20425;-60
2022/03/12 00:46:29;;;;;;;62.28;24.25;;;;;;;8.65;31.61;100786.66;4210339;28;20098;-60
2022/03/12 00:48:33;;;;;;;58.70;27.45;;;;;;;8.62;32.56;100779.69;4212647;28;20046;-60
2022/03/12 00:50:41;;;;;;;27.30;14.88;;;;;;;8.54;32.34;100784.66;4197698;28;20513;-60
2022/03/12 00:52:45;;;;;;;31.30;16.02;;;;;;;8.51;31.93;100783.69;4210774;28;20036;-60
2022/03/12 00:54:48;;;;;;;26.45;16.40;;;;;;;8.33;32.08;100792.66;4227105;28;20039;-60
2022/03/12 00:56:51;;;;;;;26.65;15.88;;;;;;;8.31;32.13;100791.75;4213365;28;20090;-60
2022/03/12 00:58:53;;;;;;;27.15;16.60;;;;;;;8.29;32.29;100795.13;4195215;28;20040;-60
2022/03/12 01:00:56;;;;;;;25.58;13.95;;;;;;;8.27;32.20;100795.06;4204724;28;20044;-60
2022/03/12 01:02:59;;;;;;;29.63;17.52;;;;;;;8.28;32.76;100791.66;4194438;28;20099;-59
2022/03/12 01:05:02;;;;;;;32.80;19.42;;;;;;;8.29;32.57;100798.56;4224341;28;20047;-60
2022/03/12 01:07:05;;;;;;;25.48;15.05;;;;;;;8.29;32.77;100796.00;4214745;28;20490;-59
2022/03/12 01:09:10;;;;;;;21.15;12.82;;;;;;;8.30;32.23;100791.72;4207217;28;20051;-60
2022/03/12 01:11:13;;;;;;;20.35;12.57;;;;;;;8.27;32.87;100794.22;4209028;28;20440;-59
2022/03/12 01:13:16;;;;;;;20.90;12.38;;;;;;;8.24;33.19;100795.00;4213267;28;20040;-59
2022/03/12 01:15:19;;;;;;;21.30;12.00;;;;;;;8.23;33.71;100794.94;4203627;28;20040;-60
2022/03/12 01:17:23;;;;;;;14.63;8.43;;;;;;;8.17;33.13;100803.41;4213425;28;20038;-59
2022/03/12 01:19:26;;;;;;;11.60;7.45;;;;;;;8.12;33.91;100794.63;4214053;28;20105;-59
2022/03/12 01:21:29;;;;;;;9.88;6.50;;;;;;;8.04;34.19;100797.00;4210432;28;20051;-59
2022/03/12 01:23:32;;;;;;;16.60;10.32;;;;;;;8.07;34.01;100785.84;4205619;28;20040;-60
2022/03/12 01:25:36;;;;;;;14.65;8.55;;;;;;;8.08;34.61;100785.03;4198396;28;20032;-60
2022/03/12 01:27:38;;;;;;;16.05;8.20;;;;;;;8.11;34.59;100782.53;4202424;28;20054;-60
2022/03/12 01:29:42;;;;;;;13.70;8.95;;;;;;;8.20;34.06;100785.38;4214099;28;20051;-60
2022/03/12 01:31:45;;;;;;;18.70;9.10;;;;;;;8.21;34.81;100779.38;4195649;28;20048;-61
2022/03/12 01:33:48;;;;;;;13.02;8.93;;;;;;;8.22;35.05;100781.13;4195066;28;20494;-60
2022/03/12 01:35:51;;;;;;;18.63;8.55;;;;;;;8.21;36.23;100785.41;4205599;28;20047;-60
2022/03/12 01:37:54;;;;;;;14.40;8.93;;;;;;;8.17;36.49;100787.88;4205546;28;20097;-60
2022/03/12 01:39:57;;;;;;;12.98;8.23;;;;;;;8.11;36.27;100785.97;4204436;28;20086;-60
2022/03/12 01:42:07;;;;;;;15.35;8.32;;;;;;;8.06;35.91;100781.50;4207889;28;20105;-61
2022/03/12 01:44:12;;;;;;;12.32;7.07;;;;;;;8.00;35.89;100784.78;4204239;28;20185;-60
2022/03/12 01:46:14;;;;;;;;;;;;;;;7.85;35.79;100787.78;4208262;28;20047;-60
2022/03/12 01:48:19;;;;;;;13.68;7.18;;;;;;;7.93;36.04;100790.59;4210768;28;20396;-60
2022/03/12 01:50:24;;;;;;;14.98;7.57;;;;;;;7.96;36.67;100790.72;4197093;28;20052;-60
2022/03/12 01:52:28;;;;;;;11.20;7.20;;;;;;;7.98;36.99;100800.25;4197383;28;20558;-60
2022/03/12 01:54:31;;;;;;;13.45;6.55;;;;;;;7.93;36.44;100801.84;4199704;28;20052;-60
2022/03/12 01:56:35;;;;;;;8.02;5.53;;;;;;;7.97;36.66;100800.22;4211331;28;20048;-60
2022/03/12 01:58:46;;;;;;;9.48;6.32;;;;;;;7.92;36.23;100804.41;4209429;28;20040;-60
2022/03/12 02:00:50;;;;;;;9.80;6.70;;;;;;;7.88;36.41;100807.72;4208568;28;20471;-60
2022/03/12 02:02:54;;;;;;;13.60;7.93;;;;;;;7.89;36.86;100796.53;4229661;28;20050;-59
2022/03/12 02:04:57;;;;;;;12.77;7.28;;;;;;;7.87;36.57;100801.69;4230656;28;20523;-60
2022/03/12 02:07:00;;;;;;;9.20;6.43;;;;;;;7.74;36.33;100810.75;4198462;28;20502;-59
2022/03/12 02:09:03;;;;;;;16.13;6.63;;;;;;;7.59;36.26;100816.31;4186895;28;20040;-60
2022/03/12 02:11:07;;;;;;;9.45;6.72;;;;;;;7.55;36.42;100811.88;4208220;28;20040;-60
2022/03/12 02:13:10;;;;;;;12.63;6.65;;;;;;;7.61;36.95;100812.06;4212493;28;20040;-60
2022/03/12 02:15:18;;;;;;;11.35;6.40;;;;;;;7.70;36.93;100819.25;4212114;28;20044;-60
2022/03/12 02:17:21;;;;;;;14.15;7.82;;;;;;;7.69;36.62;100813.22;4198982;28;20810;-60
2022/03/12 02:19:26;;;;;;;10.98;6.47;;;;;;;7.71;35.88;100817.53;4210629;28;20451;-60
2022/03/12 02:21:34;;;;;;;;;;;;;;;7.61;35.93;100827.59;4180540;28;20045;-60
2022/03/12 02:23:48;;;;;;;11.90;7.10;;;;;;;7.78;36.28;100822.06;4210033;28;20321;-60
2022/03/12 02:25:51;;;;;;;11.85;8.25;;;;;;;7.83;36.14;100818.81;4220179;28;20031;-60
2022/03/12 02:27:54;;;;;;;10.63;7.00;;;;;;;7.89;36.46;100819.84;4200168;28;20058;-60
2022/03/12 02:29:59;;;;;;;10.23;7.18;;;;;;;7.95;36.31;100820.88;4211583;28;20044;-60
2022/03/12 02:32:06;;;;;;;11.90;6.40;;;;;;;7.98;35.80;100814.94;4221186;28;20040;-61
2022/03/12 02:34:12;;;;;;;10.90;6.57;;;;;;;7.98;36.17;100815.81;4179122;28;20072;-60
2022/03/12 02:36:27;;;;;;;11.32;6.90;;;;;;;8.00;36.36;100815.84;4206038;28;20105;-60
2022/03/12 02:38:30;;;;;;;8.68;6.55;;;;;;;7.98;36.34;100814.94;4215571;28;20040;-60
2022/03/12 02:40:34;;;;;;;10.15;6.60;;;;;;;7.98;37.03;100815.81;4203225;28;20327;-60
2022/03/12 02:42:40;;;;;;;13.25;6.70;;;;;;;7.97;36.93;100823.53;4196983;28;20041;-60
2022/03/12 02:44:45;;;;;;;13.02;6.88;;;;;;;7.91;36.60;100819.03;4211426;28;20043;-60
2022/03/12 02:47:14;;;;;;;11.05;7.13;;;;;;;7.87;37.02;100817.19;4197897;28;20051;-60
2022/03/12 02:49:17;;;;;;;11.23;6.90;;;;;;;7.83;36.77;100815.34;4197726;28;20124;-60
2022/03/12 02:51:21;;;;;;;9.38;6.15;;;;;;;7.82;36.98;100817.03;4204162;28;20429;-60
2022/03/12 02:53:24;;;;;;;11.20;6.80;;;;;;;7.81;37.69;100823.06;4220514;28;20051;-60
2022/03/12 02:55:27;;;;;;;13.10;7.43;;;;;;;7.81;37.80;100823.06;4209844;28;20263;-60
2022/03/12 02:57:31;;;;;;;14.07;8.40;;;;;;;7.81;37.34;100819.56;4196433;28;20099;-60
2022/03/12 02:59:34;;;;;;;14.53;6.80;;;;;;;7.77;36.75;100828.06;4198405;28;20040;-60
2022/03/12 03:01:37;;;;;;;12.73;6.65;;;;;;;7.72;36.71;100832.25;4220160;28;20301;-60
2022/03/12 03:03:41;;;;;;;13.73;7.78;;;;;;;7.65;36.74;100834.63;4214389;28;20051;-60
2022/03/12 03:05:47;;;;;;;10.15;7.07;;;;;;;7.65;37.31;100836.31;4211357;28;20032;-61
2022/03/12 03:07:57;;;;;;;11.02;7.47;;;;;;;7.66;36.88;100838.09;4199425;28;20132;-59
2022/03/12 03:10:00;;;;;;;11.00;6.63;;;;;;;7.65;37.29;100841.50;4200604;28;20044;-60
2022/03/12 03:12:06;;;;;;;11.85;6.55;;;;;;;7.56;38.21;100842.09;4214506;28;20040;-60
2022/03/12 03:14:12;;;;;;;13.18;6.88;;;;;;;7.55;38.09;100840.34;4191054;28;20067;-60
2022/03/12 03:16:18;;;;;;;10.52;7.53;;;;;;;7.56;37.66;100841.22;4207434;28;20034;-60
2022/03/12 03:18:24;;;;;;;11.75;7.28;;;;;;;7.58;37.96;100849.88;4197313;28;20052;-60
2022/03/12 03:20:28;;;;;;;19.00;7.00;;;;;;;7.58;38.12;100845.63;4213307;28;20066;-60
2022/03/12 03:22:30;;;;;;;14.18;7.80;;;;;;;7.60;38.33;100856.88;4198403;28;20098;-61
2022/03/12 03:24:34;;;;;;;11.77;7.35;;;;;;;7.61;38.45;100855.19;4204322;28;20036;-60
2022/03/12 03:26:57;;;;;;;14.15;7.75;;;;;;;7.61;38.96;100850.88;4215739;28;20126;-60
2022/03/12 03:29:00;;;;;;;11.82;7.70;;;;;;;7.61;39.30;100860.38;4206713;28;20051;-60
2022/03/12 03:31:06;;;;;;;12.50;7.45;;;;;;;7.62;38.97;100855.25;4214122;28;20040;-60
2022/03/12 03:33:11;;;;;;;15.93;7.57;;;;;;;7.59;39.07;100865.47;4201632;28;20052;-60
2022/03/12 03:35:14;;;;;;;15.40;7.90;;;;;;;7.55;39.11;100867.91;4203981;28;20040;-60
2022/03/12 03:37:17;;;;;;;12.63;8.25;;;;;;;7.55;38.44;100870.50;4212616;28;20098;-60
2022/03/12 03:39:19;;;;;;;13.35;7.93;;;;;;;7.54;38.27;100863.59;4211847;28;20040;-59
2022/03/12 03:41:22;;;;;;;12.23;7.88;;;;;;;7.50;38.16;100870.34;4201173;28;20036;-60
2022/03/12 03:43:26;;;;;;;10.88;7.07;;;;;;;7.50;37.80;100871.25;4206027;28;20036;-59
2022/03/12 03:45:30;;;;;;;13.02;7.47;;;;;;;7.49;37.79;100881.50;4212725;28;20575;-60
2022/03/12 03:47:34;;;;;;;13.85;7.22;;;;;;;7.40;37.43;100874.31;4198892;28;20124;-60
2022/03/12 03:49:37;;;;;;;10.38;7.07;;;;;;;7.28;37.56;100885.13;4202467;28;20036;-60
2022/03/12 03:51:42;;;;;;;12.48;7.40;;;;;;;7.27;37.71;100885.97;4213784;28;20050;-60
2022/03/12 03:53:45;;;;;;;12.07;7.20;;;;;;;7.26;38.05;100888.53;4214016;28;20048;-60
2022/03/12 03:55:49;;;;;;;15.00;8.02;;;;;;;7.29;38.01;100889.50;4222388;28;20032;-60
2022/03/12 03:57:52;;;;;;;14.05;7.65;;;;;;;7.32;38.34;100886.13;4205895;28;20094;-60
2022/03/12 03:59:54;;;;;;;11.55;7.75;;;;;;;7.35;38.43;100888.81;4198654;28;20103;-60
2022/03/12 04:01:58;;;;;;;10.77;7.47;;;;;;;7.37;38.46;100897.50;4210485;28;20513;-60
2022/03/12 04:04:02;;;;;;;14.15;7.40;;;;;;;7.38;38.55;100890.66;4199629;28;20414;-59
2022/03/12 04:06:06;;;;;;;11.73;7.55;;;;;;;7.33;38.63;100888.78;4212553;28;20035;-60
2022/03/12 04:08:10;;;;;;;14.25;7.43;;;;;;;7.32;38.83;100887.00;4219875;28;20098;-59
2022/03/12 04:10:13;;;;;;;11.90;8.07;;;;;;;7.28;38.63;100889.44;4225551;28;20031;-59
2022/03/12 04:12:15;;;;;;;13.55;7.90;;;;;;;7.25;38.73;100892.78;4213256;28;20414;-60
2022/03/12 04:14:18;;;;;;;13.57;7.43;;;;;;;7.27;38.56;100896.31;4202224;28;20059;-60
2022/03/12 04:16:21;;;;;;;11.05;6.55;;;;;;;7.24;39.45;100901.41;4226414;28;20081;-60
2022/03/12 04:18:24;;;;;;;18.67;7.60;;;;;;;7.22;39.41;100908.19;4227849;28;20046;-59
2022/03/12 04:20:28;;;;;;;10.13;7.00;;;;;;;7.21;39.47;100906.44;4200912;28;20101;-60
2022/03/12 04:22:31;;;;;;;14.70;9.70;;;;;;;7.20;39.66;100914.13;4220376;28;20642;-59
2022/03/12 04:24:35;;;;;;;12.20;8.00;;;;;;;7.15;39.82;100908.81;4223593;28;20048;-59
2022/03/12 04:26:40;;;;;;;20.02;7.95;;;;;;;7.11;39.37;100912.09;4214596;28;20485;-59
2022/03/12 04:28:44;;;;;;;11.63;7.55;;;;;;;7.05;39.43;100914.47;4213211;28;20048;-60
2022/03/12 04:30:47;;;;;;;11.18;7.63;;;;;;;7.02;40.02;100914.38;4214421;28;20421;-59
2022/03/12 04:32:49;;;;;;;12.95;8.40;;;;;;;7.04;40.26;100913.63;4213738;28;20608;-59
2022/03/12 04:34:52;;;;;;;14.38;8.25;;;;;;;7.05;39.95;100917.94;4195558;28;20048;-59
2022/03/12 04:36:56;;;;;;;14.32;8.25;;;;;;;7.01;39.34;100918.69;4226304;28;20549;-59
2022/03/12 04:38:59;;;;;;;19.15;8.38;;;;;;;6.93;39.48;100920.97;4199493;28;20041;-60
2022/03/12 04:41:02;;;;;;;11.40;7.95;;;;;;;6.83;39.73;100924.03;4214504;28;20048;-59
2022/03/12 04:43:06;;;;;;;12.93;6.88;;;;;;;6.76;39.96;100919.47;4211196;28;20318;-59
2022/03/12 04:45:10;;;;;;;13.80;7.95;;;;;;;6.58;40.31;100932.56;4218024;28;20044;-60
2022/03/12 04:47:15;;;;;;;13.02;7.68;;;;;;;6.54;40.64;100936.75;4190530;28;20159;-60
2022/03/12 04:49:19;;;;;;;13.85;7.60;;;;;;;6.56;40.56;100936.81;4176817;28;20045;-60
2022/03/12 04:51:23;;;;;;;14.98;8.85;;;;;;;6.45;41.52;100933.81;4208190;28;20036;-59
2022/03/12 04:53:27;;;;;;;14.23;9.23;;;;;;;6.42;41.89;100937.16;4215963;28;20048;-60
2022/03/12 04:55:31;;;;;;;13.60;9.25;;;;;;;6.49;41.83;100927.94;4211061;28;20048;-60
2022/03/12 04:57:34;;;;;;;15.23;9.38;;;;;;;6.57;41.78;100934.28;4196400;28;20048;-60
2022/03/12 04:59:36;;;;;;;13.88;8.93;;;;;;;6.61;41.69;100928.44;4204152;28;20066;-59
2022/03/12 05:01:39;;;;;;;11.95;9.00;;;;;;;6.60;41.39;100939.56;4208179;28;20079;-59
2022/03/12 05:03:43;;;;;;;18.23;9.43;;;;;;;6.64;41.58;100937.97;4227765;28;20110;-59
2022/03/12 05:05:48;;;;;;;11.57;7.65;;;;;;;6.66;41.80;100931.19;4208648;28;20051;-59
2022/03/12 05:07:51;;;;;;;13.23;8.35;;;;;;;6.49;41.54;100950.31;4206925;28;20036;-59
2022/03/12 05:09:58;;;;;;;16.83;9.55;;;;;;;6.59;41.59;100935.22;4213948;28;20501;-60
2022/03/12 05:12:05;;;;;;;13.55;9.00;;;;;;;6.56;41.48;100940.28;4198008;28;20094;-60
2022/03/12 05:14:12;;;;;;;14.55;8.40;;;;;;;6.48;41.62;100954.59;4182533;28;20056;-59
2022/03/12 05:16:15;;;;;;;15.40;8.20;;;;;;;6.38;41.71;100945.63;4216655;28;20053;-59
2022/03/12 05:18:19;;;;;;;14.27;8.38;;;;;;;6.42;41.61;100946.59;4209602;28;20036;-59
2022/03/12 05:20:24;;;;;;;18.08;8.77;;;;;;;6.46;42.10;100940.75;4226348;28;20052;-61
2022/03/12 05:22:26;;;;;;;12.02;8.75;;;;;;;6.49;42.29;100938.28;4194653;28;20075;-60
2022/03/12 05:24:29;;;;;;;13.45;8.38;;;;;;;6.49;42.52;100933.09;4197371;28;20098;-59
2022/03/12 05:26:33;;;;;;;15.00;8.88;;;;;;;6.52;42.22;100937.53;4209908;28;20048;-60
2022/03/12 05:28:39;;;;;;;12.68;8.85;;;;;;;6.47;41.90;100933.06;4212454;28;20447;-60
2022/03/12 05:30:43;;;;;;;14.00;8.23;;;;;;;6.51;41.39;100939.19;4209156;28;20074;-59
2022/03/12 05:32:46;;;;;;;14.13;8.50;;;;;;;6.38;41.55;100944.72;4219562;28;20090;-59
2022/03/12 05:34:49;;;;;;;12.70;8.57;;;;;;;6.46;41.63;100938.16;4197121;28;20041;-60
2022/03/12 05:36:52;;;;;;;12.63;8.00;;;;;;;6.38;41.46;100945.63;4211591;28;20051;-59
2022/03/12 05:38:55;;;;;;;14.32;9.68;;;;;;;6.23;42.03;100947.59;4213703;28;20036;-60
2022/03/12 05:40:58;;;;;;;16.13;9.35;;;;;;;6.24;42.09;100932.16;4198299;28;20048;-61
2022/03/12 05:43:03;;;;;;;12.05;8.18;;;;;;;6.19;42.26;100950.84;4196458;28;20040;-59
2022/03/12 05:45:09;;;;;;;12.07;8.43;;;;;;;6.08;42.98;100960.75;4211181;28;20098;-59
2022/03/12 05:47:13;;;;;;;14.68;8.52;;;;;;;6.14;43.01;100948.09;4223220;28;20505;-60
2022/03/12 05:49:17;;;;;;;14.10;8.77;;;;;;;6.15;43.32;100960.19;4216928;28;20043;-59
2022/03/12 05:51:20;;;;;;;22.67;9.97;;;;;;;6.19;43.34;100958.59;4195526;28;20119;-59
2022/03/12 05:53:22;;;;;;;14.85;8.18;;;;;;;6.23;43.56;100956.19;4190400;28;20287;-60
2022/03/12 05:55:25;;;;;;;13.40;8.13;;;;;;;6.22;43.93;100954.47;4191484;28;20044;-60
2022/03/12 05:57:29;;;;;;;16.15;9.30;;;;;;;6.24;43.99;100947.66;4200687;28;20045;-60
2022/03/12 05:59:33;;;;;;;13.68;8.52;;;;;;;6.25;44.46;100959.75;4210566;28;20082;-60
2022/03/12 06:01:35;;;;;;;14.30;8.63;;;;;;;6.24;44.35;100957.09;4225598;28;20044;-60
2022/03/12 06:03:38;;;;;;;15.50;8.85;;;;;;;6.32;44.28;100962.56;4197088;28;20822;-60
2022/03/12 06:05:43;;;;;;;16.30;9.00;;;;;;;6.34;44.48;100966.97;4197011;28;20047;-59
2022/03/12 06:07:46;;;;;;;15.38;8.60;;;;;;;6.31;44.66;100963.38;4205832;28;20039;-60
2022/03/12 06:09:49;;;;;;;14.10;8.90;;;;;;;6.16;44.71;100969.69;4213665;28;20329;-60
2022/03/12 06:11:57;;;;;;;17.92;8.38;;;;;;;6.05;44.79;100968.38;4210267;28;20085;-60
2022/03/12 06:14:00;;;;;;;15.73;7.82;;;;;;;6.03;44.32;100959.69;4208620;28;20036;-59
2022/03/12 06:16:06;;;;;;;13.52;9.30;;;;;;;6.12;44.40;100952.34;4181552;28;20052;-60
2022/03/12 06:18:09;;;;;;;15.20;10.40;;;;;;;6.18;44.82;100957.72;4210907;28;20052;-60
2022/03/12 06:20:14;;;;;;;14.85;8.32;;;;;;;6.22;45.01;100954.47;4198118;28;20082;-60
2022/03/12 06:22:16;;;;;;;;;;;;;;;6.02;45.58;100966.56;4213315;28;20048;-59
2022/03/12 06:24:19;;;;;;;13.68;8.50;;;;;;;6.08;45.42;100958.19;4195085;28;19921;-60
2022/03/12 06:26:25;;;;;;;13.25;8.15;;;;;;;6.16;45.64;100964.50;4209220;28;20024;-59
2022/03/12 06:28:29;;;;;;;12.48;7.78;;;;;;;6.21;45.80;100962.16;4228811;28;20122;-60
2022/03/12 06:30:32;;;;;;;14.90;9.25;;;;;;;6.26;46.05;100976.09;4212676;28;20048;-59
2022/03/12 06:32:37;;;;;;;13.85;8.43;;;;;;;6.35;45.83;100984.25;4228788;28;20035;-60
2022/03/12 06:34:40;;;;;;;14.70;8.35;;;;;;;6.35;46.05;100983.34;4199158;28;20045;-59
2022/03/12 06:36:44;;;;;;;12.50;8.45;;;;;;;6.35;45.67;100975.59;4199698;28;20464;-59
2022/03/12 06:38:47;;;;;;;12.15;8.20;;;;;;;6.42;45.88;100975.00;4199895;28;20044;-59
2022/03/12 06:40:51;;;;;;;11.35;7.15;;;;;;;6.43;45.78;100976.78;4200174;28;20387;-59
2022/03/12 06:42:56;;;;;;;12.87;7.83;;;;;;;6.43;45.61;100980.22;4198938;28;20098;-59
2022/03/12 06:44:59;;;;;;;13.82;7.57;;;;;;;6.40;45.92;100985.28;4204427;28;20809;-59
2022/03/12 06:47:03;;;;;;;23.65;9.73;;;;;;;6.22;44.18;100985.44;4202138;28;20043;-59
2022/03/12 06:49:07;;;;;;;13.70;7.93;;;;;;;6.29;43.31;100992.63;4218431;28;20087;-60
2022/03/12 06:51:11;;;;;;;12.45;8.25;;;;;;;6.31;43.38;100984.94;4221323;28;20036;-59
2022/03/12 06:53:15;;;;;;;13.07;7.90;;;;;;;6.47;44.63;100986.41;4220931;28;20463;-59
2022/03/12 06:55:20;;;;;;;13.73;8.50;;;;;;;6.56;45.38;100986.78;4213796;28;20040;-59
2022/03/12 06:57:23;;;;;;;10.73;7.15;;;;;;;6.54;45.73;100987.53;4199525;28;20051;-59
2022/03/12 06:59:26;;;;;;;13.20;7.80;;;;;;;6.61;44.98;100986.94;4205544;28;20043;-59
2022/03/12 07:01:30;;;;;;;15.65;7.78;;;;;;;6.69;44.56;100982.06;4213316;28;20052;-59
2022/03/12 07:03:33;;;;;;;12.40;8.07;;;;;;;6.70;45.56;100989.00;4218320;28;20042;-59
2022/03/12 07:05:37;;;;;;;12.90;8.13;;;;;;;6.73;44.43;100994.28;4197768;28;20040;-60
2022/03/12 07:07:41;;;;;;;10.68;7.43;;;;;;;6.75;42.80;100997.81;4199528;28;20090;-60
2022/03/12 07:09:44;;;;;;;10.25;6.70;;;;;;;6.79;41.77;100995.41;4200521;28;20091;-60
2022/03/12 07:11:46;;;;;;;10.80;7.30;;;;;;;6.79;41.20;100997.09;4200434;28;20041;-60
2022/03/12 07:13:53;;;;;;;9.40;6.40;;;;;;;6.86;41.66;101001.69;4203470;28;20504;-60
2022/03/12 07:15:56;;;;;;;11.93;7.60;;;;;;;6.90;42.69;101000.97;4216576;28;20052;-60
2022/03/12 07:17:59;;;;;;;10.23;6.63;;;;;;;6.96;42.50;100998.63;4213622;28;20048;-60
2022/03/12 07:20:03;;;;;;;9.52;6.85;;;;;;;6.86;40.49;101000.81;4215807;28;20497;-60
2022/03/12 07:22:08;;;;;;;9.02;6.43;;;;;;;6.83;39.90;101001.56;4216146;28;20044;-60
2022/03/12 07:24:12;;;;;;;14.95;7.45;;;;;;;6.81;39.61;100992.88;4206888;28;20040;-60
2022/03/12 07:26:15;;;;;;;9.95;7.40;;;;;;;6.78;39.49;100998.81;4206468;28;20110;-59
2022/03/12 07:28:19;;;;;;;11.10;7.30;;;;;;;6.84;39.60;100993.00;4197487;28;20158;-59
2022/03/12 07:30:22;;;;;;;10.63;6.55;;;;;;;6.79;39.75;100994.50;4200040;28;20055;-59
2022/03/12 07:32:26;;;;;;;11.18;6.40;;;;;;;6.83;39.54;100996.41;4211174;28;20378;-59
2022/03/12 07:34:30;;;;;;;14.82;8.40;;;;;;;6.93;39.18;100997.63;4219807;28;20106;-60
2022/03/12 07:36:33;;;;;;;11.32;7.00;;;;;;;7.03;40.05;101001.44;4228174;28;20497;-59
2022/03/12 07:38:39;;;;;;;14.45;7.38;;;;;;;7.01;38.96;101000.50;4231181;28;20119;-59
2022/03/12 07:40:41;;;;;;;14.02;7.65;;;;;;;7.13;39.18;100994.06;4221798;28;20044;-59
2022/03/12 07:42:46;;;;;;;11.60;6.35;;;;;;;7.27;39.21;101002.34;4211852;28;20409;-60
2022/03/12 07:44:49;;;;;;;12.23;6.88;;;;;;;7.26;39.66;100991.97;4210742;28;20036;-60
2022/03/12 07:46:52;;;;;;;10.30;6.70;;;;;;;7.24;38.46;101002.25;4215369;28;20040;-59
2022/03/12 07:48:55;;;;;;;11.23;7.45;;;;;;;7.19;38.14;101000.31;4215599;28;20051;-59
2022/03/12 07:51:00;;;;;;;13.45;6.95;;;;;;;7.14;37.68;101002.72;4210814;28;20036;-60
2022/03/12 07:53:02;;;;;;;12.13;7.68;;;;;;;7.12;38.13;101012.13;4209207;28;20066;-59
2022/03/12 07:55:09;;;;;;;14.70;8.20;;;;;;;7.30;37.75;101005.06;4206046;28;20059;-60
2022/03/12 07:57:13;;;;;;;11.85;7.65;;;;;;;7.56;37.64;101004.22;4202563;28;20091;-59
2022/03/12 07:59:16;;;;;;;12.35;7.00;;;;;;;7.60;38.00;101006.09;4208968;28;20036;-60
2022/03/12 08:01:19;;;;;;;14.27;7.85;;;;;;;7.67;37.35;101006.34;4202635;28;20040;-60
2022/03/12 08:03:23;;;;;;;17.10;7.75;;;;;;;7.81;37.89;101013.69;4212083;28;20055;-60
2022/03/12 08:05:26;;;;;;;11.40;7.18;;;;;;;7.84;37.11;101016.38;4211895;28;20115;-60
2022/03/12 08:07:32;;;;;;;11.43;7.25;;;;;;;7.88;37.18;101005.31;4213065;28;20032;-61
2022/03/12 08:09:34;;;;;;;23.15;19.40;;;;;;;8.18;36.84;101007.19;4198347;28;20040;-61
2022/03/12 08:11:38;;;;;;;15.98;10.50;;;;;;;8.33;36.30;101010.25;4192496;28;20067;-60
2022/03/12 08:13:44;;;;;;;16.02;7.65;;;;;;;8.36;36.04;101012.94;4210861;28;20762;-61
2022/03/12 08:15:47;;;;;;;17.25;9.38;;;;;;;8.43;36.09;101013.16;4196569;28;20656;-61
2022/03/12 08:17:49;;;;;;;15.60;8.02;;;;;;;8.37;35.79;101021.63;4212915;28;20406;-60
2022/03/12 08:19:53;;;;;;;15.85;7.72;;;;;;;8.32;36.31;101029.25;4212334;28;20044;-61
2022/03/12 08:21:57;;;;;;;13.27;9.43;;;;;;;8.46;36.43;101018.47;4214586;28;20387;-61
2022/03/12 08:24:01;;;;;;;13.85;8.60;;;;;;;8.60;35.96;101018.88;4213725;28;20418;-60
2022/03/12 08:26:05;;;;;;;12.50;7.45;;;;;;;8.63;36.84;101013.78;4209728;28;20051;-61
2022/03/12 08:28:09;;;;;;;12.82;8.80;;;;;;;8.68;36.07;101015.69;4209977;28;20165;-61
2022/03/12 08:30:12;;;;;;;12.50;8.20;;;;;;;8.65;36.58;101012.16;4196201;28;20044;-61
2022/03/12 08:32:15;;;;;;;10.50;6.90;;;;;;;8.69;36.82;101014.88;4213940;28;20093;-61
2022/03/12 08:34:18;;;;;;;13.43;8.73;;;;;;;8.77;36.53;101001.28;4212858;28;20064;-61
2022/03/12 08:36:21;;;;;;;17.75;9.98;;;;;;;8.93;36.82;101013.00;4198739;28;20441;-61
2022/03/12 08:38:26;;;;;;;13.77;7.90;;;;;;;8.90;36.42;101013.78;4200191;28;20045;-61
2022/03/12 08:40:30;;;;;;;11.13;7.72;;;;;;;8.88;36.22;101012.84;4196441;28;20044;-61
2022/03/12 08:42:34;;;;;;;11.77;7.93;;;;;;;8.79;35.87;101015.16;4210154;28;20036;-61
2022/03/12 08:44:39;;;;;;;11.48;7.40;;;;;;;8.84;36.16;101023.97;4210666;28;20536;-66
2022/03/12 08:46:45;;;;;;;17.83;8.68;;;;;;;9.07;36.11;101022.06;4214638;28;20067;-61
2022/03/12 08:48:49;;;;;;;14.43;7.78;;;;;;;9.08;36.58;101027.28;4213084;28;20032;-62
2022/03/12 08:50:51;;;;;;;13.27;8.73;;;;;;;9.19;36.21;101013.75;4210373;28;20453;-64
2022/03/12 08:52:54;;;;;;;14.25;9.00;;;;;;;9.32;36.11;101010.66;4193920;28;20037;-61
2022/03/12 08:54:57;;;;;;;12.40;7.00;;;;;;;9.31;36.26;101014.09;4204307;28;20044;-61
2022/03/12 08:56:59;;;;;;;13.52;8.95;;;;;;;9.38;35.57;101016.03;4211979;28;20046;-61
2022/03/12 08:59:03;;;;;;;14.65;8.80;;;;;;;9.55;34.68;101011.31;4203703;28;20048;-61
2022/03/12 09:01:08;;;;;;;13.85;8.65;;;;;;;9.70;34.90;101005.63;4213514;28;20036;-61
2022/03/12 09:03:12;;;;;;;;;;;;;;;9.44;34.90;101008.41;4211127;28;20063;-61
2022/03/12 09:05:15;;;;;;;16.83;8.32;;;;;;;9.39;36.08;101004.81;4231219;28;19919;-60
2022/03/12 09:07:18;;;;;;;12.82;7.75;;;;;;;9.45;36.07;101017.09;4212351;28;20175;-60
2022/03/12 09:09:21;;;;;;;12.20;7.20;;;;;;;9.61;36.58;101016.66;4208420;28;20439;-60
2022/03/12 09:11:25;;;;;;;11.15;7.20;;;;;;;9.53;35.69;101014.69;4184698;28;20080;-60
2022/03/12 09:13:28;;;;;;;14.95;8.43;;;;;;;9.74;35.02;101009.22;4204285;28;20033;-60
2022/03/12 09:15:30;;;;;;;13.18;8.70;;;;;;;9.82;34.84;101012.00;4197291;28;20123;-60
2022/03/12 09:17:35;;;;;;;13.70;7.93;;;;;;;9.71;35.60;101012.59;4197439;28;20560;-61
2022/03/12 09:19:37;;;;;;;17.23;9.60;;;;;;;9.70;35.68;101010.84;4197423;28;20044;-60
2022/03/12 09:21:42;;;;;;;15.60;9.15;;;;;;;9.82;35.71;101009.41;4208008;28;20040;-61
2022/03/12 09:23:45;;;;;;;13.02;7.72;;;;;;;9.86;35.53;101008.66;4213225;28;20047;-60
2022/03/12 09:25:49;;;;;;;16.92;7.85;;;;;;;9.94;35.69;101012.31;4214107;28;20509;-61
2022/03/12 09:27:54;;;;;;;15.10;7.90;;;;;;;10.02;36.21;101008.19;4214152;28;20044;-60
2022/03/12 09:29:57;;;;;;;13.57;7.60;;;;;;;10.05;35.19;101010.88;4196038;28;20415;-60
2022/03/12 09:32:01;;;;;;;15.60;9.17;;;;;;;10.09;34.75;101010.13;4211426;28;20081;-61
2022/03/12 09:34:06;;;;;;;18.15;7.68;;;;;;;10.04;34.94;101009.09;4209124;28;20093;-61
2022/03/12 09:36:09;;;;;;;12.80;8.10;;;;;;;10.10;35.13;101009.28;4214019;28;20425;-60
2022/03/12 09:38:12;;;;;;;12.32;7.78;;;;;;;10.06;34.96;101010.03;4213869;28;20062;-60